Terminal Aerodrome Forecast
Issued by NWS

Home | Current Version | Previous Version | Graphics & Text | Print | Product List | Glossary On
Versions: 1 2 3 4 5 6 7 8 9 10 11 12 13 14 15 16 17 18 19 20 21 22 23 24 25
000
FTUS43 KUNR 170300 AAA
TAFGCC
TAF AMD
KGCC 170308Z 1703/1724 18011KT 5SM BR BKN005
     FM171500 20008KT P6SM SCT006 SCT100=

USA.gov is the U.S. government's official web portal to all federal, state and local government web resources and services.